Terminal Aerodrome Forecast
Issued by NWS

Home | Current Version | Previous Version | Text Only | Print | Product List | Glossary On
Versions: 1 2 3 4 5 6 7 8 9 10 11 12 13 14 15 16
000
FTUS44 KLIX 231529 AAA
TAFMSY
TAF AMD
KMSY 231529Z 2315/2418 22007G16KT 1SM +RA BR SCT009 BKN015 OVC060
     FM231600 13007KT P6SM BKN020 BKN060
      TEMPO 2316/2318 4SM -SHRA OVC007
     FM231800 14009KT P6SM -SHRA VCTS BKN025CB BKN030
      TEMPO 2318/2321 2SM TSRA BKN020CB
     FM232300 14007KT P6SM BKN035 BKN100
     FM240800 15005KT P6SM BKN010 BKN030=

USA.gov is the U.S. government's official web portal to all federal, state and local government web resources and services.